Hlavní strana
METAR-TAF:

METAR-TAF

Letiště :

Nador, Maroko

zeměpisná šířka: 34-59-20N, zeměpisná délka: 003-01-42W, výška: 175 m

Aktuální stav počasí

Zpráva byla vytvořena před 1 hodinou a 1 minutami, v 22:00 UTC
Východojihovýchodní vítr 4 kt
Teplota 13°C
Vlhkost vzduchu 82%
Tlak 1029 hPa
Viditelnost: 6000 m
Polojasno ve výšce 1400 ft
Oblačno až skoro zataženo ve výšce 2000 ft

METAR: GMMW 242200Z 11004KT 6000 SCT014 BKN020 13/10 Q1029 NOSIG

Čas: 00:01 (23:01 UTC)

Předpověď počasí

Zpráva byla vytvořena před 6 hodinami a 1 minutami, v 17:00 UTC
Předpověď platná od 24 v 18 UTC do 25 v 24 UTC
Severovýchodní vítr 14 kt
Viditelnost: 6000 m
Oblačno až skoro zataženo ve výšce 1500 ft
Pravděpodobnost 30%
od 25 v 00 UTC do 25 v 08 UTC
Viditelnost: 2000 m
Zataženo ve výšce 800 ft
kouřmo

TAF: GMMW 241700Z 2418/2524 04014KT 6000 BKN015 PROB30 2500/2508 2000 BR OVC008

Stav a předpovědi počasí z více než 4 000 letišť (zprávy METAR a TAF).

Červené a žluté tečky na mapě představují dostupné meteorologické stanice.

Když kurzor umístíte na tečku, zobrazí se název stanice.

Pak kliknutím zobrazíte stav a předpověď počasí.

Chcete-li změnit mapu, kliknutím na zelené tlačítko se znaménkem +mapu přiblížíte, kliknutím na zelené tlačítko se znaménkem – mapu oddálíte a kliknutím na zelené šipky přejdete na sousední mapy.


METAR-TAF: